createdAt,value
2022-08-11T00:00:50.159Z,2.50
2022-08-11T00:01:50.135Z,2.40
2022-08-11T00:02:50.175Z,2.20
2022-08-11T00:03:50.135Z,2.20
2022-08-11T00:04:50.127Z,2.40
2022-08-11T00:05:50.121Z,2.40
2022-08-11T00:06:50.134Z,2.50
2022-08-11T00:07:50.092Z,2.40
2022-08-11T00:08:50.088Z,2.20
2022-08-11T00:09:50.087Z,2.30
2022-08-11T00:10:50.070Z,2.10
2022-08-11T00:11:50.069Z,2.10
2022-08-11T00:12:50.084Z,2.40
2022-08-11T00:13:50.055Z,2.20
2022-08-11T00:14:50.054Z,2.40
2022-08-11T00:15:50.028Z,2.10
2022-08-11T00:16:50.051Z,2.20
2022-08-11T00:17:50.023Z,2.40
2022-08-11T00:18:50.015Z,2.50
2022-08-11T00:20:11.914Z,2.40
2022-08-11T00:20:51.023Z,2.10
2022-08-11T00:22:04.093Z,2.60
2022-08-11T00:22:50.986Z,2.60
2022-08-11T00:23:49.967Z,2.40
2022-08-11T00:24:54.904Z,2.50
2022-08-11T00:25:50.978Z,2.40
2022-08-11T00:26:49.962Z,2.30
2022-08-11T00:27:49.954Z,2.30
2022-08-11T00:28:49.949Z,2.50
2022-08-11T00:29:51.734Z,2.30
2022-08-11T00:30:49.945Z,2.30
2022-08-11T00:31:49.919Z,2.40
2022-08-11T00:32:49.908Z,2.20
2022-08-11T00:33:49.897Z,2.20
2022-08-11T00:34:49.927Z,2.40
2022-08-11T00:35:57.494Z,2.30
2022-08-11T00:36:50.880Z,2.30
2022-08-11T00:37:49.908Z,2.30
2022-08-11T00:38:49.872Z,2.10
2022-08-11T00:39:49.895Z,2.50
2022-08-11T00:40:49.866Z,2.40
2022-08-11T00:41:49.856Z,2.40
2022-08-11T00:42:49.831Z,2.20
2022-08-11T00:43:49.824Z,2.40
2022-08-11T00:44:49.811Z,2.40
2022-08-11T00:45:49.824Z,2.30
2022-08-11T00:46:49.824Z,2.20
2022-08-11T00:47:49.791Z,2.30
2022-08-11T00:48:49.780Z,2.30
2022-08-11T00:49:49.772Z,2.50
2022-08-11T00:50:49.795Z,2.30
2022-08-11T00:51:57.645Z,2.20
2022-08-11T00:52:50.759Z,2.70
2022-08-11T00:53:49.752Z,2.20
2022-08-11T00:54:49.742Z,2.40
2022-08-11T00:55:55.551Z,2.70
2022-08-11T00:56:50.752Z,2.40
2022-08-11T00:57:49.711Z,2.40
2022-08-11T00:58:51.084Z,2.40
2022-08-11T00:59:49.694Z,2.60
2022-08-11T01:00:49.746Z,2.40
2022-08-11T01:01:49.678Z,2.30
2022-08-11T01:02:49.699Z,2.30
2022-08-11T01:03:49.675Z,2.30
2022-08-11T01:04:53.809Z,2.20
2022-08-11T01:05:50.654Z,2.40
2022-08-11T01:06:49.659Z,2.40
2022-08-11T01:08:02.289Z,2.60
2022-08-11T01:08:50.654Z,2.40
2022-08-11T01:09:49.613Z,2.40
2022-08-11T01:10:49.611Z,2.60
2022-08-11T01:11:55.452Z,2.40
2022-08-11T01:12:50.621Z,2.40
2022-08-11T01:13:49.594Z,2.30
2022-08-11T01:14:49.628Z,2.50
2022-08-11T01:15:56.101Z,2.30
2022-08-11T01:16:50.561Z,2.30
2022-08-11T01:17:49.559Z,2.30
2022-08-11T01:18:49.555Z,2.30
2022-08-11T01:20:44.750Z,2.70
2022-08-11T01:20:50.558Z,2.50
2022-08-11T01:21:49.531Z,2.50
2022-08-11T01:22:49.525Z,2.80
2022-08-11T01:23:49.520Z,2.50
2022-08-11T01:24:49.511Z,2.40
2022-08-11T01:25:57.646Z,2.40
2022-08-11T01:26:50.520Z,2.50
2022-08-11T01:27:49.489Z,2.40
2022-08-11T01:28:49.480Z,2.60
2022-08-11T01:29:49.592Z,2.40
2022-08-11T01:30:49.461Z,2.60
2022-08-11T01:31:49.457Z,2.60
2022-08-11T01:32:49.477Z,2.80
2022-08-11T01:33:49.435Z,2.70
2022-08-11T01:34:49.439Z,2.60
2022-08-11T01:35:49.424Z,2.50
2022-08-11T01:36:53.605Z,2.50
2022-08-11T01:37:49.432Z,2.60
2022-08-11T01:38:49.399Z,2.50
2022-08-11T01:39:49.437Z,2.70
2022-08-11T01:40:49.385Z,2.50
2022-08-11T01:41:49.372Z,2.60
2022-08-11T01:42:49.381Z,2.60
2022-08-11T01:43:49.384Z,2.60
2022-08-11T01:44:49.352Z,2.50
2022-08-11T01:45:49.337Z,2.70
2022-08-11T01:46:49.336Z,2.40
2022-08-11T01:47:53.275Z,2.30
2022-08-11T01:48:49.336Z,2.60
2022-08-11T01:50:08.000Z,2.60
2022-08-11T01:50:50.335Z,2.50
2022-08-11T01:51:49.298Z,2.50
2022-08-11T01:52:49.291Z,2.60
2022-08-11T01:53:49.290Z,2.40
2022-08-11T01:54:49.278Z,2.70
2022-08-11T01:55:49.293Z,3.00
2022-08-11T01:56:49.273Z,2.60
2022-08-11T01:57:49.257Z,2.80
2022-08-11T01:58:49.249Z,2.60
2022-08-11T01:59:49.235Z,2.80
2022-08-11T02:00:49.319Z,2.60
2022-08-11T02:01:49.282Z,3.00
2022-08-11T02:02:49.228Z,2.60
2022-08-11T02:03:49.210Z,2.80
2022-08-11T02:04:49.221Z,2.70
2022-08-11T02:05:49.189Z,2.50
2022-08-11T02:06:49.181Z,2.60
2022-08-11T02:07:49.199Z,2.40
2022-08-11T02:08:50.665Z,2.50
2022-08-11T02:09:49.299Z,2.50
2022-08-11T02:10:50.744Z,2.50
2022-08-11T02:11:49.171Z,2.60
2022-08-11T02:12:52.497Z,2.60
2022-08-11T02:13:49.138Z,2.60
2022-08-11T02:14:53.619Z,2.60
2022-08-11T02:15:50.121Z,2.60
2022-08-11T02:16:49.107Z,2.40
2022-08-11T02:17:49.106Z,2.70
2022-08-11T02:18:49.084Z,2.50
2022-08-11T02:19:49.075Z,2.80
2022-08-11T02:20:49.068Z,3.00
2022-08-11T02:21:49.055Z,2.90
2022-08-11T02:22:49.073Z,2.90
2022-08-11T02:24:07.050Z,3.00
2022-08-11T02:24:50.031Z,3.10
2022-08-11T02:25:49.043Z,3.30
2022-08-11T02:26:49.017Z,3.20
2022-08-11T02:27:49.010Z,3.40
2022-08-11T02:28:49.002Z,3.50
2022-08-11T02:29:49.007Z,3.50
2022-08-11T02:30:48.985Z,3.60
2022-08-11T02:32:24.343Z,3.30
2022-08-11T02:32:49.983Z,3.10
2022-08-11T02:33:48.956Z,3.10
2022-08-11T02:35:00.259Z,3.20
2022-08-11T02:35:49.943Z,3.10
2022-08-11T02:36:48.931Z,3.10
2022-08-11T02:37:48.928Z,3.20
2022-08-11T02:38:48.915Z,3.00
2022-08-11T02:39:48.935Z,3.00
2022-08-11T02:40:48.912Z,3.20
2022-08-11T02:41:48.886Z,3.20
2022-08-11T02:42:49.376Z,3.30
2022-08-11T02:43:50.954Z,3.20
2022-08-11T02:44:48.863Z,3.30
2022-08-11T02:45:48.858Z,3.20
2022-08-11T02:46:48.865Z,3.20
2022-08-11T02:47:48.835Z,3.30
2022-08-11T02:48:48.838Z,3.00
2022-08-11T02:49:48.826Z,2.80
2022-08-11T02:50:49.808Z,3.00
2022-08-11T02:51:48.808Z,3.30
2022-08-11T02:52:48.817Z,3.00
2022-08-11T02:53:56.153Z,2.90
2022-08-11T02:54:49.802Z,2.80
2022-08-11T02:55:57.268Z,2.80
2022-08-11T02:56:49.769Z,2.90
2022-08-11T02:57:48.782Z,2.70
2022-08-11T02:58:48.749Z,2.80
2022-08-11T02:59:48.728Z,2.70
2022-08-11T03:00:48.764Z,3.10
2022-08-11T03:01:48.796Z,3.00
2022-08-11T03:02:48.714Z,3.30
2022-08-11T03:03:48.705Z,3.30
2022-08-11T03:04:48.701Z,3.10
2022-08-11T03:05:48.694Z,3.00
2022-08-11T03:06:48.790Z,2.90
2022-08-11T03:07:48.674Z,3.30
2022-08-11T03:08:48.661Z,3.40
2022-08-11T03:09:48.658Z,3.40
2022-08-11T03:10:48.663Z,3.20
2022-08-11T03:11:48.634Z,3.10
2022-08-11T03:12:53.459Z,3.10
2022-08-11T03:13:48.615Z,3.30
2022-08-11T03:14:48.651Z,3.20
2022-08-11T03:15:48.602Z,3.20
2022-08-11T03:16:48.600Z,3.10
2022-08-11T03:17:48.590Z,2.80
2022-08-11T03:18:48.596Z,3.20
2022-08-11T03:19:48.571Z,3.10
2022-08-11T03:20:48.577Z,3.10
2022-08-11T03:22:01.767Z,3.20
2022-08-11T03:22:49.582Z,2.90
2022-08-11T03:23:48.532Z,2.90
2022-08-11T03:24:48.533Z,3.00
2022-08-11T03:25:48.508Z,3.10
2022-08-11T03:26:48.513Z,3.20
2022-08-11T03:27:48.515Z,3.10
2022-08-11T03:28:48.522Z,3.50
2022-08-11T03:29:48.490Z,3.20
2022-08-11T03:30:48.480Z,3.40
2022-08-11T03:31:48.464Z,3.70
2022-08-11T03:32:48.462Z,4.00
2022-08-11T03:33:48.459Z,3.60
2022-08-11T03:34:48.465Z,4.20
2022-08-11T03:35:48.437Z,4.10
2022-08-11T03:37:00.611Z,4.10
2022-08-11T03:37:49.421Z,4.30
2022-08-11T03:38:48.420Z,4.10
2022-08-11T03:39:52.643Z,3.90
2022-08-11T03:40:49.403Z,4.10
2022-08-11T03:42:03.767Z,4.60
2022-08-11T03:42:49.413Z,4.00
2022-08-11T03:43:50.230Z,4.00
2022-08-11T03:44:49.361Z,3.90
2022-08-11T03:45:48.380Z,4.10
2022-08-11T03:46:48.370Z,4.40
2022-08-11T03:47:54.889Z,4.10
2022-08-11T03:48:49.344Z,4.20
2022-08-11T03:49:48.322Z,4.00
2022-08-11T03:50:53.093Z,4.20
2022-08-11T03:51:52.117Z,4.20
2022-08-11T03:52:48.325Z,4.10
2022-08-11T03:53:48.283Z,4.10
2022-08-11T03:54:48.293Z,4.00
2022-08-11T03:55:48.277Z,4.50
2022-08-11T03:56:48.289Z,4.10
2022-08-11T03:57:48.261Z,4.20
2022-08-11T03:58:48.252Z,3.70
2022-08-11T03:59:48.258Z,3.70
2022-08-11T04:00:48.237Z,3.60
2022-08-11T04:01:48.277Z,3.60
2022-08-11T04:02:48.214Z,3.80
2022-08-11T04:03:48.222Z,3.40
2022-08-11T04:04:51.658Z,3.70
2022-08-11T04:05:48.185Z,3.50
2022-08-11T04:06:48.186Z,3.70
2022-08-11T04:07:48.164Z,3.40
2022-08-11T04:08:48.156Z,3.50
2022-08-11T04:09:48.176Z,3.20
2022-08-11T04:10:48.144Z,3.10
2022-08-11T04:11:48.137Z,3.10
2022-08-11T04:12:48.157Z,3.50
2022-08-11T04:13:48.132Z,3.50
2022-08-11T04:14:48.112Z,3.40
2022-08-11T04:15:48.112Z,3.20
2022-08-11T04:16:48.107Z,3.60
2022-08-11T04:17:48.071Z,3.60
2022-08-11T04:18:48.067Z,3.60
2022-08-11T04:19:48.054Z,3.70
2022-08-11T04:20:48.074Z,3.70
2022-08-11T04:21:48.046Z,4.00
2022-08-11T04:22:48.041Z,3.80
2022-08-11T04:24:34.813Z,3.70
2022-08-11T04:24:50.554Z,3.70
2022-08-11T04:25:57.956Z,3.90
2022-08-11T04:26:49.021Z,4.20
2022-08-11T04:27:47.994Z,4.50
2022-08-11T04:28:50.286Z,3.80
2022-08-11T04:30:05.053Z,4.00
2022-08-11T04:30:47.977Z,3.90
2022-08-11T04:31:51.466Z,4.50
2022-08-11T04:32:47.994Z,4.00
2022-08-11T04:33:47.949Z,4.20
2022-08-11T04:34:47.940Z,4.30
2022-08-11T04:35:51.105Z,3.90
2022-08-11T04:36:47.921Z,4.20
2022-08-11T04:37:51.333Z,4.40
2022-08-11T04:38:48.930Z,3.90
2022-08-11T04:39:47.910Z,3.50
2022-08-11T04:40:47.893Z,3.90
2022-08-11T04:41:47.890Z,4.00
2022-08-11T04:42:47.895Z,3.90
2022-08-11T04:44:02.657Z,4.10
2022-08-11T04:44:48.862Z,4.00
2022-08-11T04:45:47.845Z,4.00
2022-08-11T04:46:47.830Z,4.00
2022-08-11T04:48:01.668Z,4.20
2022-08-11T04:48:48.843Z,4.10
2022-08-11T04:49:47.799Z,4.20
2022-08-11T04:51:08.800Z,3.90
2022-08-11T04:51:48.788Z,4.30
2022-08-11T04:52:47.780Z,4.00
2022-08-11T04:53:47.761Z,4.10
2022-08-11T04:54:47.782Z,4.40
2022-08-11T04:55:47.750Z,4.40
2022-08-11T04:56:47.770Z,4.40
2022-08-11T04:57:47.742Z,4.60
2022-08-11T04:58:47.730Z,4.40
2022-08-11T04:59:47.719Z,4.50
2022-08-11T05:00:47.709Z,4.10
2022-08-11T05:01:47.753Z,4.10
2022-08-11T05:02:47.694Z,3.70
2022-08-11T05:03:47.705Z,3.60
2022-08-11T05:04:47.690Z,3.90
2022-08-11T05:05:56.520Z,3.70
2022-08-11T05:06:48.670Z,3.80
2022-08-11T05:07:47.669Z,3.60
2022-08-11T05:08:47.649Z,3.80
2022-08-11T05:09:47.644Z,4.00
2022-08-11T05:10:47.637Z,4.20
2022-08-11T05:11:47.648Z,4.20
2022-08-11T05:12:47.650Z,4.40
2022-08-11T05:13:47.610Z,4.30
2022-08-11T05:14:47.604Z,4.20
2022-08-11T05:15:51.366Z,4.00
2022-08-11T05:16:47.616Z,4.50
2022-08-11T05:17:47.603Z,4.60
2022-08-11T05:18:47.586Z,4.10
2022-08-11T05:19:47.561Z,4.20
2022-08-11T05:20:47.560Z,4.10
2022-08-11T05:21:47.550Z,3.70
2022-08-11T05:22:47.551Z,3.90
2022-08-11T05:23:47.554Z,3.80
2022-08-11T05:24:47.537Z,4.10
2022-08-11T05:26:45.211Z,4.00
2022-08-11T05:26:49.525Z,4.00
2022-08-11T05:27:47.503Z,3.90
2022-08-11T05:28:47.507Z,3.60
2022-08-11T05:29:47.519Z,4.00
2022-08-11T05:30:47.517Z,3.90
2022-08-11T05:31:47.487Z,4.00
2022-08-11T05:32:47.477Z,3.90
2022-08-11T05:33:47.470Z,3.70
2022-08-11T05:34:47.466Z,3.90
2022-08-11T05:36:01.970Z,3.80
2022-08-11T05:36:48.469Z,3.90
2022-08-11T05:37:47.446Z,3.80
2022-08-11T05:38:47.439Z,3.90
2022-08-11T05:39:47.494Z,3.70
2022-08-11T05:40:51.153Z,3.70
2022-08-11T05:41:48.424Z,3.60
2022-08-11T05:42:47.421Z,3.60
2022-08-11T05:44:19.817Z,3.60
2022-08-11T05:44:48.418Z,3.70
2022-08-11T05:46:02.874Z,3.60
2022-08-11T05:46:48.386Z,3.50
2022-08-11T05:47:47.380Z,3.70
2022-08-11T05:48:47.377Z,3.90
2022-08-11T05:49:47.384Z,3.40
2022-08-11T05:50:47.369Z,3.40
2022-08-11T05:51:54.587Z,3.20
2022-08-11T05:52:48.997Z,3.40
2022-08-11T05:53:47.346Z,3.60
2022-08-11T05:54:47.328Z,3.60
2022-08-11T05:56:01.677Z,3.40
2022-08-11T05:56:48.337Z,3.20
2022-08-11T05:57:50.980Z,3.20
2022-08-11T05:58:47.302Z,3.40
2022-08-11T05:59:47.296Z,3.70
2022-08-11T06:00:47.302Z,3.40
2022-08-11T06:01:47.365Z,3.50
2022-08-11T06:02:47.314Z,3.40
2022-08-11T06:03:58.185Z,3.20
2022-08-11T06:04:48.265Z,3.40
2022-08-11T06:05:47.256Z,3.30
2022-08-11T06:06:47.271Z,3.40
2022-08-11T06:07:49.646Z,3.00
2022-08-11T06:08:47.260Z,3.30
2022-08-11T06:09:47.225Z,3.40
2022-08-11T06:10:47.220Z,3.20
2022-08-11T06:11:47.213Z,2.80
2022-08-11T06:12:47.218Z,3.10
2022-08-11T06:13:47.190Z,3.10
2022-08-11T06:14:47.219Z,3.00
2022-08-11T06:15:47.188Z,3.20
2022-08-11T06:16:47.178Z,3.20
2022-08-11T06:17:47.169Z,3.20
2022-08-11T06:18:47.162Z,3.20
2022-08-11T06:19:47.152Z,2.90
2022-08-11T06:20:47.179Z,3.00
2022-08-11T06:21:47.157Z,3.00
2022-08-11T06:22:51.018Z,3.40
2022-08-11T06:23:48.132Z,3.10
2022-08-11T06:24:47.118Z,3.10
2022-08-11T06:25:47.127Z,3.10
2022-08-11T06:27:09.223Z,3.00
2022-08-11T06:27:48.108Z,3.10
2022-08-11T06:28:47.099Z,3.00
2022-08-11T06:29:54.446Z,3.00
2022-08-11T06:30:47.102Z,3.10
2022-08-11T06:31:47.079Z,3.10
2022-08-11T06:32:47.080Z,2.90
2022-08-11T06:33:47.080Z,2.70
2022-08-11T06:34:47.057Z,2.70
2022-08-11T06:35:47.049Z,2.60
2022-08-11T06:36:47.085Z,2.90
2022-08-11T06:37:47.042Z,2.50
2022-08-11T06:38:47.034Z,2.90
2022-08-11T06:39:47.071Z,3.00
2022-08-11T06:40:47.019Z,2.50
2022-08-11T06:41:47.043Z,2.90
2022-08-11T06:42:47.005Z,2.70
2022-08-11T06:43:55.333Z,3.00
2022-08-11T06:44:47.988Z,2.70
2022-08-11T06:45:46.987Z,2.80
2022-08-11T06:46:47.013Z,3.40
2022-08-11T06:47:46.969Z,2.70
2022-08-11T06:48:46.961Z,2.50
2022-08-11T06:49:46.958Z,2.70
2022-08-11T06:50:46.952Z,2.70
2022-08-11T06:51:46.942Z,2.60
2022-08-11T06:52:47.217Z,2.40
2022-08-11T06:54:02.826Z,2.60
2022-08-11T06:54:47.948Z,2.50
2022-08-11T06:55:57.115Z,2.50
2022-08-11T06:56:46.932Z,2.70
2022-08-11T06:57:46.934Z,2.30
2022-08-11T06:58:46.898Z,2.30
2022-08-11T06:59:46.920Z,2.60
2022-08-11T07:00:46.878Z,2.30
2022-08-11T07:01:47.816Z,2.70
2022-08-11T07:02:46.891Z,2.40
2022-08-11T07:03:46.861Z,2.40
2022-08-11T07:04:46.856Z,2.50
2022-08-11T07:05:46.866Z,2.30
2022-08-11T07:06:50.590Z,2.00
2022-08-11T07:07:46.858Z,2.60
2022-08-11T07:08:46.838Z,2.70
2022-08-11T07:09:46.831Z,2.30
2022-08-11T07:10:46.818Z,2.50
2022-08-11T07:11:46.814Z,2.60
2022-08-11T07:12:46.797Z,2.60
2022-08-11T07:13:46.814Z,2.50
2022-08-11T07:14:46.816Z,2.40
2022-08-11T07:16:11.406Z,2.40
2022-08-11T07:16:47.779Z,2.00
2022-08-11T07:17:46.765Z,2.60
2022-08-11T07:18:46.784Z,2.60
2022-08-11T07:19:46.769Z,2.20
2022-08-11T07:20:46.746Z,2.30
2022-08-11T07:22:03.032Z,2.40
2022-08-11T07:22:47.740Z,2.40
2022-08-11T07:23:46.730Z,2.40
2022-08-11T07:25:02.752Z,2.40
2022-08-11T07:25:47.712Z,2.30
2022-08-11T07:26:46.710Z,2.10
2022-08-11T07:27:46.719Z,2.20
2022-08-11T07:28:46.735Z,2.20
2022-08-11T07:29:46.689Z,2.30
2022-08-11T07:30:46.685Z,2.40
2022-08-11T07:31:47.685Z,2.40
2022-08-11T07:32:46.681Z,2.40
2022-08-11T07:34:06.342Z,2.40
2022-08-11T07:34:47.673Z,2.20
2022-08-11T07:35:46.649Z,2.20
2022-08-11T07:36:46.641Z,2.20
2022-08-11T07:37:46.673Z,2.30
2022-08-11T07:38:47.428Z,2.30
2022-08-11T07:39:46.690Z,2.20
2022-08-11T07:40:46.617Z,2.30
2022-08-11T07:41:46.604Z,2.30
2022-08-11T07:42:46.603Z,2.30
2022-08-11T07:43:46.613Z,2.60
2022-08-11T07:44:46.582Z,2.50
2022-08-11T07:45:46.575Z,2.30
2022-08-11T07:46:46.573Z,2.30
2022-08-11T07:47:46.557Z,2.20
2022-08-11T07:48:46.600Z,2.40
2022-08-11T07:49:46.568Z,2.20
2022-08-11T07:50:46.537Z,2.30
2022-08-11T07:51:46.537Z,2.40
2022-08-11T07:52:46.525Z,2.70
2022-08-11T07:54:16.358Z,2.20
2022-08-11T07:54:47.517Z,2.10
2022-08-11T07:55:50.146Z,2.30
2022-08-11T07:56:55.431Z,2.20
2022-08-11T07:58:13.712Z,2.30
2022-08-11T07:58:52.333Z,2.20
2022-08-11T08:00:03.359Z,2.10
2022-08-11T08:00:47.469Z,2.30
2022-08-11T08:01:46.495Z,2.00
2022-08-11T08:02:46.464Z,2.20
2022-08-11T08:03:54.430Z,2.00
2022-08-11T08:04:47.566Z,2.20
2022-08-11T08:05:46.452Z,2.10
2022-08-11T08:06:46.448Z,2.40
2022-08-11T08:07:46.425Z,2.30
2022-08-11T08:08:46.419Z,2.60
2022-08-11T08:09:46.430Z,2.90
2022-08-11T08:10:46.407Z,2.80
2022-08-11T08:11:46.397Z,2.40
2022-08-11T08:12:46.395Z,2.10
2022-08-11T08:13:46.403Z,2.10
2022-08-11T08:14:46.397Z,2.30
2022-08-11T08:15:46.365Z,2.20
2022-08-11T08:16:46.381Z,2.00
2022-08-11T08:17:46.353Z,2.20
2022-08-11T08:18:47.378Z,2.10
2022-08-11T08:19:46.342Z,2.10
2022-08-11T08:20:46.355Z,2.10
2022-08-11T08:21:46.336Z,1.90
2022-08-11T08:22:48.450Z,2.10
2022-08-11T08:23:46.322Z,2.20
2022-08-11T08:24:46.313Z,2.10
2022-08-11T08:25:46.331Z,2.10
2022-08-11T08:26:51.440Z,2.20
2022-08-11T08:27:47.301Z,2.20
2022-08-11T08:28:46.294Z,1.90
2022-08-11T08:29:46.286Z,2.10
2022-08-11T08:30:46.285Z,2.20
2022-08-11T08:31:46.285Z,2.20
2022-08-11T08:32:46.271Z,2.20
2022-08-11T08:33:46.274Z,2.10
2022-08-11T08:34:46.255Z,2.20
2022-08-11T08:35:53.999Z,2.10
2022-08-11T08:36:47.233Z,2.10
2022-08-11T08:37:47.827Z,1.90
2022-08-11T08:38:46.224Z,2.30
2022-08-11T08:39:46.343Z,2.30
2022-08-11T08:40:46.213Z,1.90
2022-08-11T08:41:46.215Z,2.10
2022-08-11T08:42:46.304Z,2.20
2022-08-11T08:43:48.439Z,2.30
2022-08-11T08:44:46.199Z,2.10
2022-08-11T08:45:46.179Z,2.30
2022-08-11T08:46:46.170Z,2.20
2022-08-11T08:47:49.814Z,2.10
2022-08-11T08:48:47.185Z,2.40
2022-08-11T08:49:46.557Z,2.10
2022-08-11T08:50:46.823Z,2.10
2022-08-11T08:52:01.985Z,2.20
2022-08-11T08:52:47.393Z,2.10
2022-08-11T08:53:52.671Z,2.10
2022-08-11T08:54:46.131Z,2.10
2022-08-11T08:55:46.104Z,2.00
2022-08-11T08:56:46.100Z,1.90
2022-08-11T08:57:46.099Z,1.90
2022-08-11T08:58:46.088Z,1.90
2022-08-11T08:59:48.600Z,1.90
2022-08-11T09:00:46.068Z,1.90
2022-08-11T09:01:46.137Z,1.60
2022-08-11T09:02:46.366Z,1.70
2022-08-11T09:04:04.737Z,1.80
2022-08-11T09:04:47.066Z,1.90
2022-08-11T09:05:46.026Z,1.80
2022-08-11T09:06:48.867Z,2.00
2022-08-11T09:07:46.032Z,2.00
2022-08-11T09:08:46.035Z,2.10
2022-08-11T09:09:46.004Z,1.80
2022-08-11T09:10:45.998Z,1.80
2022-08-11T09:11:46.024Z,1.90
2022-08-11T09:12:46.103Z,1.90
2022-08-11T09:13:45.992Z,1.90
2022-08-11T09:14:46.988Z,1.80
2022-08-11T09:15:45.981Z,2.10
2022-08-11T09:16:45.963Z,2.00
2022-08-11T09:17:45.996Z,2.00
2022-08-11T09:18:45.952Z,2.20
2022-08-11T09:19:45.935Z,1.90
2022-08-11T09:20:46.932Z,1.90
2022-08-11T09:21:48.853Z,2.20
2022-08-11T09:22:45.923Z,1.90
2022-08-11T09:24:45.917Z,2.10
2022-08-11T09:25:45.919Z,2.20
2022-08-11T09:26:45.890Z,2.00
2022-08-11T09:27:50.359Z,2.00
2022-08-11T09:28:45.902Z,2.10
2022-08-11T09:29:45.887Z,2.00
2022-08-11T09:30:45.894Z,2.20
2022-08-11T09:31:45.897Z,2.20
2022-08-11T09:32:45.851Z,1.90
2022-08-11T09:33:45.873Z,2.00
2022-08-11T09:34:45.872Z,2.10
2022-08-11T09:35:45.855Z,2.00
2022-08-11T09:36:45.836Z,2.00
2022-08-11T09:37:54.729Z,2.20
2022-08-11T09:38:49.610Z,2.10
2022-08-11T09:39:45.838Z,2.10
2022-08-11T09:40:45.802Z,2.20
2022-08-11T09:42:01.844Z,2.30
2022-08-11T09:42:46.809Z,2.00
2022-08-11T09:43:45.779Z,2.00
2022-08-11T09:44:45.927Z,2.10
2022-08-11T09:45:45.756Z,2.00
2022-08-11T09:46:45.755Z,2.30
2022-08-11T09:47:45.763Z,2.00
2022-08-11T09:48:45.769Z,2.10
2022-08-11T09:49:45.738Z,2.00
2022-08-11T09:50:45.728Z,2.30
2022-08-11T09:52:02.047Z,2.00
2022-08-11T09:53:10.046Z,2.00
2022-08-11T09:53:47.113Z,2.00
2022-08-11T09:54:48.269Z,2.10
2022-08-11T09:55:45.693Z,2.00
2022-08-11T09:56:45.696Z,2.10
2022-08-11T09:57:45.679Z,2.10
2022-08-11T09:58:45.672Z,2.10
2022-08-11T09:59:45.674Z,2.20
2022-08-11T10:00:45.720Z,2.20
2022-08-11T10:01:47.366Z,2.10
2022-08-11T10:02:45.665Z,2.20
2022-08-11T10:03:45.637Z,2.10
2022-08-11T10:04:45.629Z,2.50
2022-08-11T10:05:45.625Z,2.30
2022-08-11T10:06:45.619Z,2.20
2022-08-11T10:07:45.629Z,2.30
2022-08-11T10:08:45.624Z,2.50
2022-08-11T10:09:45.597Z,2.30
2022-08-11T10:10:45.601Z,2.00
2022-08-11T10:11:45.569Z,2.40
2022-08-11T10:12:46.580Z,2.50
2022-08-11T10:14:32.845Z,2.20
2022-08-11T10:14:46.581Z,2.10
2022-08-11T10:16:00.115Z,2.00
2022-08-11T10:16:45.549Z,2.30
2022-08-11T10:17:45.536Z,2.30
2022-08-11T10:18:45.549Z,2.40
2022-08-11T10:19:45.532Z,2.20
2022-08-11T10:20:46.532Z,2.20
2022-08-11T10:21:45.516Z,2.30
2022-08-11T10:22:45.527Z,2.30
2022-08-11T10:24:00.297Z,2.30
2022-08-11T10:24:46.509Z,2.40
2022-08-11T10:25:45.488Z,2.10
2022-08-11T10:26:45.481Z,2.30
2022-08-11T10:28:17.443Z,2.10
2022-08-11T10:29:09.883Z,2.30
2022-08-11T10:29:50.002Z,2.60
2022-08-11T10:30:45.455Z,2.20
2022-08-11T10:31:57.820Z,2.20
2022-08-11T10:32:58.786Z,2.10
2022-08-11T10:33:59.001Z,2.40
2022-08-11T10:34:51.289Z,2.30
2022-08-11T10:35:46.420Z,2.00
2022-08-11T10:36:45.415Z,2.20
2022-08-11T10:38:07.949Z,2.10
2022-08-11T10:38:46.413Z,2.40
2022-08-11T10:39:45.454Z,2.30
2022-08-11T10:40:45.419Z,2.10
2022-08-11T10:42:06.168Z,2.40
2022-08-11T10:42:57.687Z,2.10
2022-08-11T10:44:01.552Z,2.30
2022-08-11T10:44:46.375Z,2.30
2022-08-11T10:45:45.358Z,2.00
2022-08-11T10:46:45.369Z,2.30
2022-08-11T10:47:49.579Z,2.30
2022-08-11T10:48:45.369Z,2.10
2022-08-11T10:49:45.331Z,2.40
2022-08-11T10:50:45.317Z,2.30
2022-08-11T10:51:51.602Z,2.40
2022-08-11T10:52:46.315Z,2.30
2022-08-11T10:53:45.308Z,2.30
2022-08-11T10:54:45.323Z,2.40
2022-08-11T10:55:45.337Z,2.40
2022-08-11T10:56:45.292Z,2.60
2022-08-11T10:58:04.847Z,2.50
2022-08-11T10:58:45.276Z,2.40
2022-08-11T10:59:45.284Z,2.40
2022-08-11T11:00:45.266Z,2.40
2022-08-11T11:01:45.388Z,2.30
2022-08-11T11:02:45.240Z,2.20
2022-08-11T11:03:46.228Z,2.20
2022-08-11T11:04:48.992Z,2.40
2022-08-11T11:06:28.092Z,2.50
2022-08-11T11:06:46.215Z,2.40
2022-08-11T11:07:45.206Z,2.30
2022-08-11T11:08:45.270Z,2.50
2022-08-11T11:09:45.195Z,2.50
2022-08-11T11:10:45.205Z,2.50
2022-08-11T11:11:45.188Z,2.40
2022-08-11T11:12:45.195Z,2.30
2022-08-11T11:13:55.086Z,2.30
2022-08-11T11:14:49.788Z,2.30
2022-08-11T11:15:45.155Z,2.20
2022-08-11T11:16:45.148Z,2.50
2022-08-11T11:17:45.143Z,2.10
2022-08-11T11:18:45.167Z,2.10
2022-08-11T11:19:46.144Z,2.20
2022-08-11T11:20:47.487Z,2.40
2022-08-11T11:21:45.115Z,2.40
2022-08-11T11:22:45.119Z,2.30
2022-08-11T11:23:45.104Z,2.20
2022-08-11T11:24:45.123Z,2.50
2022-08-11T11:25:45.090Z,2.40
2022-08-11T11:26:45.088Z,2.60
2022-08-11T11:27:46.437Z,2.50
2022-08-11T11:28:45.078Z,2.40
2022-08-11T11:29:45.071Z,2.40
2022-08-11T11:30:45.119Z,2.40
2022-08-11T11:31:45.063Z,2.60
2022-08-11T11:32:49.445Z,2.40
2022-08-11T11:34:11.904Z,2.30
2022-08-11T11:34:52.738Z,2.20
2022-08-11T11:35:46.050Z,2.30
2022-08-11T11:36:45.024Z,2.10
2022-08-11T11:38:03.668Z,2.40
2022-08-11T11:38:46.009Z,2.40
2022-08-11T11:39:45.072Z,2.20
2022-08-11T11:40:44.992Z,2.20
2022-08-11T11:41:45.001Z,2.30
2022-08-11T11:42:44.984Z,2.10
2022-08-11T11:43:45.023Z,2.10
2022-08-11T11:44:44.964Z,2.40
2022-08-11T11:45:44.958Z,2.30
2022-08-11T11:46:44.962Z,2.10
2022-08-11T11:47:44.952Z,2.10
2022-08-11T11:48:44.960Z,2.30
2022-08-11T11:49:44.966Z,2.20
2022-08-11T11:50:44.959Z,2.40
2022-08-11T11:51:44.926Z,2.30
2022-08-11T11:52:44.927Z,2.40
2022-08-11T11:53:44.918Z,2.30
2022-08-11T11:54:44.937Z,2.40
2022-08-11T11:55:44.905Z,2.20
2022-08-11T11:56:44.905Z,2.20
2022-08-11T11:57:59.295Z,2.40
2022-08-11T11:58:45.885Z,2.20
2022-08-11T11:59:44.895Z,2.20
2022-08-11T12:00:44.881Z,2.30
2022-08-11T12:01:50.434Z,2.30
2022-08-11T12:02:45.854Z,2.30
2022-08-11T12:03:44.945Z,2.50
2022-08-11T12:04:44.839Z,2.20
2022-08-11T12:05:44.831Z,2.30
2022-08-11T12:06:44.828Z,2.40
2022-08-11T12:07:44.826Z,2.70
2022-08-11T12:08:44.812Z,2.30
2022-08-11T12:09:44.846Z,2.20
2022-08-11T12:10:44.803Z,2.30
2022-08-11T12:11:44.784Z,2.30
2022-08-11T12:12:44.792Z,2.20
2022-08-11T12:13:44.788Z,2.30
2022-08-11T12:14:44.772Z,2.40
2022-08-11T12:16:32.824Z,2.40
2022-08-11T12:16:45.757Z,2.40
2022-08-11T12:17:44.749Z,2.20
2022-08-11T12:18:44.760Z,2.40
2022-08-11T12:19:48.622Z,2.20
2022-08-11T12:20:44.732Z,2.30
2022-08-11T12:21:44.737Z,2.20
2022-08-11T12:22:44.709Z,2.00
2022-08-11T12:23:44.706Z,2.30
2022-08-11T12:24:44.709Z,2.20
2022-08-11T12:25:44.687Z,2.20
2022-08-11T12:26:44.693Z,2.00
2022-08-11T12:27:45.690Z,2.40
2022-08-11T12:28:44.674Z,2.50
2022-08-11T12:29:44.666Z,2.40
2022-08-11T12:30:44.931Z,2.20
2022-08-11T12:31:44.672Z,2.30
2022-08-11T12:32:44.662Z,2.60
2022-08-11T12:33:44.662Z,2.50
2022-08-11T12:34:44.658Z,2.20
2022-08-11T12:36:00.645Z,2.30
2022-08-11T12:36:45.620Z,2.80
2022-08-11T12:37:44.610Z,2.30
2022-08-11T12:38:44.603Z,2.10
2022-08-11T12:40:16.170Z,2.40
2022-08-11T12:41:16.030Z,2.40
2022-08-11T12:41:45.633Z,2.00
2022-08-11T12:42:44.574Z,2.40
2022-08-11T12:43:45.571Z,2.40
2022-08-11T12:44:45.584Z,2.30
2022-08-11T12:45:44.583Z,2.20
2022-08-11T12:46:44.569Z,2.40
2022-08-11T12:47:44.548Z,2.20
2022-08-11T12:49:00.675Z,2.20
2022-08-11T12:49:45.808Z,2.40
2022-08-11T12:50:44.528Z,2.20
2022-08-11T12:52:06.784Z,2.30
2022-08-11T12:52:45.519Z,2.20
2022-08-11T12:53:44.514Z,2.10
2022-08-11T12:54:44.509Z,2.20
2022-08-11T12:56:03.783Z,2.10
2022-08-11T12:56:45.504Z,2.10
2022-08-11T12:57:44.500Z,2.30
2022-08-11T12:58:44.473Z,2.20
2022-08-11T12:59:44.480Z,2.00
2022-08-11T13:00:44.594Z,2.20
2022-08-11T13:01:44.459Z,2.10
2022-08-11T13:02:44.682Z,2.00
2022-08-11T13:03:44.458Z,2.10
2022-08-11T13:04:45.444Z,2.20
2022-08-11T13:05:45.347Z,2.40
2022-08-11T13:06:44.421Z,2.30
2022-08-11T13:07:50.846Z,2.30
2022-08-11T13:08:45.421Z,2.20
2022-08-11T13:09:44.407Z,2.40
2022-08-11T13:10:44.400Z,2.30
2022-08-11T13:11:56.041Z,2.20
2022-08-11T13:12:45.392Z,2.10
2022-08-11T13:13:53.994Z,2.10
2022-08-11T13:14:45.381Z,2.20
2022-08-11T13:15:44.364Z,2.00
2022-08-11T13:16:44.364Z,2.20
2022-08-11T13:17:44.548Z,2.20
2022-08-11T13:18:44.359Z,2.20
2022-08-11T13:19:49.663Z,2.60